Time;durP1;ratioP1;P1;durP2;ratioP2;P2;SDS_P1;SDS_P2;PMS_P1;PMS_P2;Temp;Humidity;BMP_temperature;BMP_pressure;BME280_temperature;BME280_humidity;BME280_pressure;Samples;Min_cycle;Max_cycle;Signal;HPM_P1;HPM_P2
2022/04/17 00:01:54;;;;;;;;;1.00;1.00;;;;;18.98;48.33;103090.31;5072873;28;9389;-68
2022/04/17 00:04:19;;;;;;;;;0.00;0.00;;;;;18.96;48.43;103084.09;5073007;28;9527;-67
2022/04/17 00:06:45;;;;;;;;;1.00;1.00;;;;;18.97;48.39;103090.28;5072019;28;8815;-68
2022/04/17 00:09:11;;;;;;;;;2.00;2.00;;;;;18.95;48.33;103084.94;5073365;28;8755;-68
2022/04/17 00:11:37;;;;;;;;;0.00;0.00;;;;;18.95;48.38;103084.94;5073128;28;8794;-68
2022/04/17 00:14:02;;;;;;;;;0.00;0.00;;;;;18.97;48.32;103087.66;5071859;28;9356;-69
2022/04/17 00:16:28;;;;;;;;;0.00;0.00;;;;;18.93;48.29;103078.75;5073235;28;8953;-68
2022/04/17 00:18:53;;;;;;;;;0.25;0.25;;;;;18.95;48.24;103076.13;5073038;28;8755;-69
2022/04/17 00:21:20;;;;;;;;;0.25;0.25;;;;;18.94;48.09;103072.56;5072099;28;8778;-69
2022/04/17 00:23:46;;;;;;;;;0.00;0.00;;;;;18.95;48.36;103073.47;5072730;28;8937;-69
2022/04/17 00:26:11;;;;;;;;;1.50;1.25;;;;;18.93;48.32;103078.75;5073003;28;9503;-69
2022/04/17 00:28:36;;;;;;;;;1.00;1.00;;;;;18.93;48.26;103070.81;5072116;28;8806;-69
2022/04/17 00:31:02;;;;;;;;;1.75;1.75;;;;;18.93;48.19;103073.44;5072414;28;8806;-69
2022/04/17 00:33:27;;;;;;;;;0.33;0.00;;;;;18.91;48.33;103066.31;5073152;28;8770;-67
2022/04/17 00:35:52;;;;;;;;;1.50;1.50;;;;;18.88;48.49;103063.59;5071629;28;9256;-68
2022/04/17 00:38:18;;;;;;;;;0.00;0.00;;;;;18.88;48.12;103063.59;5072383;28;8794;-68
2022/04/17 00:40:46;;;;;;;;;1.00;1.00;;;;;18.89;48.08;103065.41;5072802;28;8774;-68
2022/04/17 00:43:32;;;;;;;;;1.33;1.33;;;;;18.91;48.31;103063.66;5072117;28;8769;-68
2022/04/17 00:45:59;;;;;;;;;1.00;1.00;;;;;18.89;47.99;103058.34;5072207;28;9352;-68
2022/04/17 00:48:24;;;;;;;;;1.00;1.00;;;;;18.88;48.17;103058.31;5071680;28;9255;-68
2022/04/17 00:50:53;;;;;;;;;1.00;1.00;;;;;18.86;47.90;103047.66;5071435;28;9457;-68
2022/04/17 00:53:21;;;;;;;;;1.00;1.00;;;;;18.87;47.99;103051.22;5072441;28;8770;-67
2022/04/17 00:55:47;;;;;;;;;1.50;1.50;;;;;18.86;47.89;103046.81;5070379;28;9384;-67
2022/04/17 00:58:14;;;;;;;;;1.00;1.00;;;;;18.86;47.79;103044.16;5072344;28;9452;-68
2022/04/17 01:00:41;;;;;;;;;0.00;0.00;;;;;18.87;47.95;103043.28;5072602;28;8798;-68
2022/04/17 01:03:07;;;;;;;;;1.00;1.00;;;;;18.84;47.56;103044.13;5071393;28;9243;-68
2022/04/17 01:05:32;;;;;;;;;1.00;1.00;;;;;18.85;47.65;103050.31;5072137;28;9329;-68
2022/04/17 01:07:58;;;;;;;;;1.00;1.00;;;;;18.82;47.74;103046.72;5071470;28;11464;-67
2022/04/17 01:10:24;;;;;;;;;0.67;0.67;;;;;18.84;47.81;103052.06;5071544;28;8892;-67
2022/04/17 01:12:49;;;;;;;;;1.00;1.00;;;;;18.84;47.83;103044.13;5071817;28;8798;-68
2022/04/17 01:15:17;;;;;;;;;0.75;0.00;;;;;18.83;47.72;103043.22;5071976;28;9215;-69
2022/04/17 01:17:42;;;;;;;;;0.00;0.00;;;;;18.84;47.53;103046.75;5071304;28;8818;-68
2022/04/17 01:20:10;;;;;;;;;1.00;1.00;;;;;18.83;47.64;103034.38;5071601;28;9217;-67
2022/04/17 01:22:35;;;;;;;;;2.00;1.00;;;;;18.84;47.57;103038.81;5071848;28;8806;-68
2022/04/17 01:27:44;;;;;;;;;1.00;1.00;;;;;18.80;47.66;103035.22;5071575;28;8782;-67
2022/04/17 01:30:10;;;;;;;;;1.00;1.00;;;;;18.79;48.00;103036.06;5071016;28;9355;-68
2022/04/17 01:32:35;;;;;;;;;0.00;0.00;;;;;18.79;47.51;103037.81;5071656;28;8790;-67
2022/04/17 01:35:04;;;;;;;;;1.00;1.00;;;;;18.79;47.73;103033.41;5071441;28;8810;-69
2022/04/17 01:37:29;;;;;;;;;2.67;1.00;;;;;18.80;47.73;103034.31;5070819;28;8807;-68
2022/04/17 01:39:54;;;;;;;;;1.00;1.00;;;;;18.78;47.59;103036.91;5071296;28;9411;-68
2022/04/17 01:42:19;;;;;;;;;1.00;1.00;;;;;18.78;47.48;103033.41;5071216;28;8786;-67
2022/04/17 01:44:45;;;;;;;;;1.00;1.00;;;;;18.78;47.53;103034.25;5070374;28;8785;-68
2022/04/17 01:47:10;;;;;;;;;1.00;1.00;;;;;18.78;47.44;103041.34;5071183;28;8933;-68
2022/04/17 01:49:36;;;;;;;;;2.00;1.00;;;;;18.76;47.55;103033.34;5071386;28;8770;-67
2022/04/17 01:52:02;;;;;;;;;1.00;1.00;;;;;18.76;47.60;103040.38;5069998;28;8810;-67
2022/04/17 01:54:28;;;;;;;;;0.67;0.67;;;;;18.77;47.69;103039.53;5071194;28;8798;-67
2022/04/17 01:56:54;;;;;;;;;2.00;1.00;;;;;18.75;47.73;103038.59;5070392;28;9252;-69
2022/04/17 01:59:21;;;;;;;;;2.00;1.00;;;;;18.74;47.67;103034.19;5070375;28;9541;-68
2022/04/17 02:01:48;;;;;;;;;2.00;1.00;;;;;18.74;47.50;103034.19;5070032;28;8777;-68
2022/04/17 02:04:14;;;;;;;;;1.00;1.00;;;;;18.73;47.84;103035.03;5070914;28;9426;-68
2022/04/17 02:06:39;;;;;;;;;1.00;0.75;;;;;18.73;47.78;103033.28;5070155;28;9347;-68
2022/04/17 02:09:07;;;;;;;;;0.67;0.67;;;;;18.73;47.64;103032.38;5071172;28;8756;-67
2022/04/17 02:11:33;;;;;;;;;1.00;1.00;;;;;18.71;47.32;103020.84;5071239;28;8799;-68
2022/04/17 02:13:58;;;;;;;;;1.50;1.50;;;;;18.72;47.49;103020.00;5069697;28;9493;-68
2022/04/17 02:16:24;;;;;;;;;1.00;1.00;;;;;18.70;47.79;103025.28;5070605;28;10585;-68
2022/04/17 02:18:52;;;;;;;;;1.00;1.00;;;;;18.71;47.61;103028.78;5070630;28;8877;-68
2022/04/17 02:21:18;;;;;;;;;0.00;0.00;;;;;18.70;47.66;103022.63;5070170;28;8773;-68
2022/04/17 02:23:45;;;;;;;;;2.50;2.50;;;;;18.70;47.36;103021.75;5070438;28;9240;-68
2022/04/17 02:26:13;;;;;;;;;1.00;1.00;;;;;18.70;47.52;103025.28;5070362;28;9437;-68
2022/04/17 02:28:40;;;;;;;;;1.00;1.00;;;;;18.69;47.45;103017.28;5069985;28;9396;-68
2022/04/17 02:31:06;;;;;;;;;1.00;1.00;;;;;18.68;47.36;103013.75;5070188;28;9389;-68
2022/04/17 02:33:32;;;;;;;;;0.67;0.67;;;;;18.69;47.22;103023.50;5069991;28;9322;-68
2022/04/17 02:35:58;;;;;;;;;1.33;1.33;;;;;18.69;47.43;103019.94;5070144;28;9535;-68
2022/04/17 02:38:24;;;;;;;;;1.25;1.25;;;;;18.68;47.52;103011.09;5070354;28;11544;-68
2022/04/17 02:40:50;;;;;;;;;2.00;1.00;;;;;18.68;47.43;103011.09;5069431;28;9428;-68
2022/04/17 02:43:15;;;;;;;;;2.50;1.50;;;;;18.68;47.59;103007.56;5070445;28;8822;-68
2022/04/17 02:45:40;;;;;;;;;1.00;1.00;;;;;18.66;47.37;103004.91;5070397;28;11447;-68
2022/04/17 02:48:06;;;;;;;;;2.00;2.00;;;;;18.67;47.45;103003.16;5069439;28;8798;-68
2022/04/17 02:50:31;;;;;;;;;1.00;1.00;;;;;18.65;47.26;103003.09;5070190;28;8839;-67
2022/04/17 02:52:57;;;;;;;;;1.25;1.25;;;;;18.66;47.35;103004.91;5070099;28;8773;-68
2022/04/17 02:55:25;;;;;;;;;1.67;1.67;;;;;18.67;47.39;103005.81;5069625;28;8912;-67
2022/04/17 02:57:51;;;;;;;;;1.25;1.00;;;;;18.64;47.22;102998.66;5069877;28;8758;-67
2022/04/17 03:00:17;;;;;;;;;1.33;1.00;;;;;18.63;47.51;102998.66;5070153;28;9487;-68
2022/04/17 03:05:37;;;;;;;;;1.67;1.67;;;;;18.63;47.40;102990.72;5070109;28;8944;-68
2022/04/17 03:08:14;;;;;;;;;1.50;1.50;;;;;18.63;47.60;102990.72;5069148;28;9493;-68
2022/04/17 03:10:46;;;;;;;;;1.33;1.33;;;;;18.62;47.46;102988.91;5069392;28;9485;-68
2022/04/17 03:13:11;;;;;;;;;2.00;2.00;;;;;18.63;47.47;102993.34;5069716;28;9368;-68
2022/04/17 03:15:38;;;;;;;;;2.00;2.00;;;;;18.63;47.54;102998.66;5069555;28;9398;-68
2022/04/17 03:18:08;;;;;;;;;1.00;1.00;;;;;18.62;47.63;102996.84;5069487;28;8806;-68
2022/04/17 03:20:34;;;;;;;;;1.75;1.75;;;;;18.61;47.62;102998.59;5070026;28;9327;-68
2022/04/17 03:22:59;;;;;;;;;2.00;1.00;;;;;18.59;47.73;102987.09;5069016;28;9314;-68
2022/04/17 03:25:24;;;;;;;;;2.00;2.00;;;;;18.60;47.70;102988.88;5069496;28;9691;-68
2022/04/17 03:27:50;;;;;;;;;1.00;1.00;;;;;18.61;47.54;102990.66;5069579;28;8794;-67
2022/04/17 03:30:16;;;;;;;;;2.33;2.33;;;;;18.61;47.72;102990.66;5069142;28;9478;-69
2022/04/17 03:32:46;;;;;;;;;2.00;2.00;;;;;18.60;47.46;102990.59;5069735;28;8801;-68
2022/04/17 03:35:13;;;;;;;;;1.67;1.67;;;;;18.60;47.56;102987.97;5069829;28;9386;-68
2022/04/17 03:37:38;;;;;;;;;2.00;2.00;;;;;18.59;47.46;102987.09;5068987;28;9233;-68
2022/04/17 03:40:05;;;;;;;;;2.00;2.00;;;;;18.59;47.69;102979.16;5069527;28;9413;-68
2022/04/17 03:42:31;;;;;;;;;3.00;3.00;;;;;18.59;47.53;102986.19;5069936;28;8785;-68
2022/04/17 03:44:56;;;;;;;;;1.00;1.00;;;;;18.55;47.59;102974.66;5068705;28;9254;-68
2022/04/17 03:47:22;;;;;;;;;2.50;2.25;;;;;18.54;47.49;102972.88;5069541;28;8900;-67
2022/04/17 03:49:47;;;;;;;;;2.50;2.50;;;;;18.55;47.66;102972.00;5069461;28;8851;-68
2022/04/17 03:52:12;;;;;;;;;2.00;2.00;;;;;18.55;47.49;102973.75;5068778;28;8823;-68
2022/04/17 03:54:38;;;;;;;;;2.50;2.50;;;;;18.55;47.66;102971.13;5069564;28;8806;-68
2022/04/17 03:57:03;;;;;;;;;1.25;1.25;;;;;18.54;47.48;102977.25;5069434;28;8808;-68
2022/04/17 03:59:31;;;;;;;;;2.00;2.00;;;;;18.55;47.60;102974.66;5068941;28;8766;-68
2022/04/17 04:01:57;;;;;;;;;2.00;2.00;;;;;18.53;47.33;102973.72;5069367;28;8754;-68
2022/04/17 04:04:22;;;;;;;;;2.50;2.50;;;;;18.53;47.35;102970.16;5069579;28;9402;-69
2022/04/17 04:06:47;;;;;;;;;2.50;2.50;;;;;18.52;47.41;102961.34;5068023;28;8814;-67
2022/04/17 04:09:12;;;;;;;;;2.75;2.75;;;;;18.52;47.38;102966.63;5069448;28;9565;-67
2022/04/17 04:11:38;;;;;;;;;3.00;3.00;;;;;18.51;47.42;102962.22;5069558;28;8783;-67
2022/04/17 04:14:04;;;;;;;;;2.00;2.00;;;;;18.50;47.67;102957.75;5068379;28;8790;-68
2022/04/17 04:16:29;;;;;;;;;2.50;2.50;;;;;18.50;47.44;102956.84;5069359;28;8809;-68
2022/04/17 04:18:54;;;;;;;;;3.00;3.00;;;;;18.50;47.64;102955.09;5068145;28;10790;-68
2022/04/17 04:21:19;;;;;;;;;3.00;3.00;;;;;18.50;47.43;102955.09;5069404;28;8774;-67
2022/04/17 04:23:45;;;;;;;;;2.25;2.25;;;;;18.48;47.41;102954.19;5069135;28;8792;-68
2022/04/17 04:26:10;;;;;;;;;3.50;2.75;;;;;18.48;47.60;102940.06;5071158;28;8810;-68
2022/04/17 04:28:38;;;;;;;;;2.00;1.50;;;;;18.49;47.05;102942.72;5072789;28;8778;-68
2022/04/17 04:31:06;;;;;;;;;2.00;1.00;;;;;18.49;47.39;102950.66;5072258;28;8800;-67
2022/04/17 04:33:32;;;;;;;;;4.25;3.00;;;;;18.49;47.30;102950.66;5071951;28;9462;-68
2022/04/17 04:35:59;;;;;;;;;3.00;3.00;;;;;18.49;47.32;102955.94;5072373;28;9371;-68
2022/04/17 04:38:24;;;;;;;;;3.00;2.00;;;;;18.49;47.54;102939.19;5072769;28;9404;-68
2022/04/17 04:40:50;;;;;;;;;1.75;1.75;;;;;18.47;47.38;102946.19;5071700;28;9393;-67
2022/04/17 04:43:16;;;;;;;;;2.75;2.75;;;;;18.48;47.48;102940.06;5072676;28;8934;-68
2022/04/17 04:51:09;;;;;;;;;4.00;4.00;;;;;18.46;47.54;102937.38;5072184;28;9455;-67
2022/04/17 04:53:34;;;;;;;;;0.00;0.00;;;;;18.45;47.10;102937.31;5072475;28;9489;-67
2022/04/17 04:56:05;;;;;;;;;4.00;3.00;;;;;18.47;47.19;102931.22;5071268;28;8774;-68
2022/04/17 04:58:30;;;;;;;;;3.00;3.00;;;;;18.40;47.49;102926.66;5072302;28;8781;-67
2022/04/17 05:00:55;;;;;;;;;2.75;2.75;;;;;18.45;47.48;102932.03;5071605;28;9388;-68
2022/04/17 05:03:21;;;;;;;;;3.00;3.00;;;;;18.44;47.17;102928.53;5072442;28;8801;-67
2022/04/17 05:05:46;;;;;;;;;4.50;3.50;;;;;18.44;47.41;102930.28;5071802;28;8941;-68
2022/04/17 05:08:12;;;;;;;;;3.00;3.00;;;;;18.42;47.28;102929.31;5071005;28;8792;-67
2022/04/17 05:10:38;;;;;;;;;3.00;3.00;;;;;18.44;47.45;102933.81;5072061;28;8755;-67
2022/04/17 05:13:04;;;;;;;;;5.00;5.00;;;;;18.42;47.47;102940.81;5071582;28;9421;-67
2022/04/17 05:15:30;;;;;;;;;3.33;3.33;;;;;18.43;47.34;102944.34;5071581;28;9293;-68
2022/04/17 05:17:55;;;;;;;;;2.50;2.50;;;;;18.43;47.17;102939.06;5071193;28;8825;-67
2022/04/17 05:20:22;;;;;;;;;3.00;3.00;;;;;18.43;47.19;102949.63;5071502;28;8817;-67
2022/04/17 05:22:53;;;;;;;;;4.50;4.50;;;;;18.42;47.19;102948.72;5070862;28;9463;-67
2022/04/17 05:25:19;;;;;;;;;3.50;2.75;;;;;18.42;47.22;102951.38;5071478;28;9529;-67
2022/04/17 05:27:44;;;;;;;;;4.00;4.00;;;;;18.41;47.30;102939.00;5071633;28;9730;-68
2022/04/17 05:30:09;;;;;;;;;3.25;3.00;;;;;18.40;47.19;102942.53;5070956;28;8893;-67
2022/04/17 05:32:35;;;;;;;;;3.00;3.00;;;;;18.40;47.41;102945.19;5071582;28;8786;-68
2022/04/17 05:35:00;;;;;;;;;3.00;3.00;;;;;18.41;47.46;102939.00;5071395;28;8781;-67
2022/04/17 05:37:27;;;;;;;;;2.00;2.00;;;;;18.41;47.14;102944.28;5070576;28;8770;-67
2022/04/17 05:39:52;;;;;;;;;3.00;3.00;;;;;18.40;47.43;102939.00;5071283;28;8925;-68
2022/04/17 05:42:18;;;;;;;;;4.00;4.00;;;;;18.40;47.07;102942.53;5071510;28;9431;-68
2022/04/17 05:44:43;;;;;;;;;2.00;2.00;;;;;18.40;47.21;102947.81;5070627;28;8888;-69
2022/04/17 05:47:09;;;;;;;;;5.25;5.00;;;;;18.40;47.24;102950.47;5071199;28;8841;-68
2022/04/17 05:49:34;;;;;;;;;4.50;3.50;;;;;18.39;47.10;102948.66;5070815;28;8773;-68
2022/04/17 05:52:00;;;;;;;;;3.00;3.00;;;;;18.38;47.38;102952.16;5070472;28;9619;-68
2022/04/17 05:54:26;;;;;;;;;4.00;4.00;;;;;18.39;46.93;102951.31;5071429;28;8790;-68
2022/04/17 05:56:51;;;;;;;;;2.75;2.75;;;;;18.39;47.06;102951.31;5070947;28;8801;-69
2022/04/17 05:59:16;;;;;;;;;3.00;3.00;;;;;18.40;46.96;102955.75;5070309;28;8774;-67
2022/04/17 06:01:41;;;;;;;;;2.50;2.50;;;;;18.39;46.95;102948.66;5070920;28;8967;-68
2022/04/17 06:04:07;;;;;;;;;4.00;4.00;;;;;18.40;47.23;102954.84;5070780;28;8941;-68
2022/04/17 06:06:32;;;;;;;;;4.50;4.50;;;;;18.40;46.97;102955.75;5069854;28;8811;-67
2022/04/17 06:08:58;;;;;;;;;3.50;3.50;;;;;18.39;47.25;102947.78;5070706;28;8787;-67
2022/04/17 06:11:23;;;;;;;;;3.00;3.00;;;;;18.38;46.88;102941.59;5070298;28;8784;-67
2022/04/17 06:13:49;;;;;;;;;4.50;4.50;;;;;18.39;47.11;102942.47;5070158;28;8879;-68
2022/04/17 06:16:14;;;;;;;;;6.00;5.25;;;;;18.37;47.05;102945.06;5070595;28;8778;-68
2022/04/17 06:18:39;;;;;;;;;3.00;3.00;;;;;18.36;47.04;102945.97;5069799;28;8805;-67
2022/04/17 06:21:07;;;;;;;;;4.00;4.00;;;;;18.39;47.01;102950.41;5070639;28;8998;-68
2022/04/17 06:23:32;;;;;;;;;3.75;3.75;;;;;18.39;46.80;102947.78;5070716;28;8896;-67
2022/04/17 06:25:59;;;;;;;;;3.00;3.00;;;;;18.39;46.56;102951.31;5069825;28;9793;-68
2022/04/17 06:28:25;;;;;;;;;3.50;3.50;;;;;18.38;46.81;102948.63;5070389;28;8781;-67
2022/04/17 06:30:50;;;;;;;;;4.00;4.00;;;;;18.39;46.53;102951.31;5070200;28;9479;-67
2022/04/17 06:33:15;;;;;;;;;7.00;4.00;;;;;18.39;46.51;102951.31;5070005;28;8782;-68
2022/04/17 06:35:40;;;;;;;;;3.00;3.00;;;;;18.39;46.72;102950.41;5070587;28;8766;-68
2022/04/17 06:38:08;;;;;;;;;4.00;4.00;;;;;18.39;46.68;102956.59;5070407;28;9571;-67
2022/04/17 06:40:36;;;;;;;;;6.25;4.50;;;;;18.39;46.78;102946.03;5069748;28;8846;-67
2022/04/17 06:43:05;;;;;;;;;3.00;3.00;;;;;18.39;46.76;102945.13;5069447;28;9651;-68
2022/04/17 06:45:31;;;;;;;;;4.00;4.00;;;;;18.40;46.50;102941.63;5070257;28;9730;-68
2022/04/17 06:47:57;;;;;;;;;4.50;3.25;;;;;18.41;46.53;102928.44;5068918;28;9852;-68
2022/04/17 06:50:23;;;;;;;;;4.00;4.00;;;;;18.41;46.47;102930.22;5070299;28;9553;-67
2022/04/17 06:52:49;;;;;;;;;3.00;3.00;;;;;18.41;46.58;102940.78;5070078;28;8902;-68
2022/04/17 06:55:15;;;;;;;;;3.00;2.00;;;;;18.41;46.41;102935.50;5069413;28;9626;-68
2022/04/17 06:57:46;;;;;;;;;4.00;4.00;;;;;18.41;46.18;102925.78;5070188;28;9551;-68
2022/04/17 07:00:12;;;;;;;;;5.50;5.50;;;;;18.42;46.23;102924.94;5069973;28;8786;-68
2022/04/17 07:02:40;;;;;;;;;3.00;3.00;;;;;18.42;46.22;102927.56;5069633;28;9739;-68
2022/04/17 07:05:06;;;;;;;;;4.00;4.00;;;;;18.43;46.22;102921.44;5069657;28;9624;-68
2022/04/17 07:07:32;;;;;;;;;5.00;5.00;;;;;18.44;46.04;102931.16;5070000;28;9709;-68
2022/04/17 07:09:57;;;;;;;;;4.00;4.00;;;;;18.46;46.34;102929.44;5069185;28;9636;-68
2022/04/17 07:12:23;;;;;;;;;3.75;3.00;;;;;18.49;46.47;102925.94;5068246;28;9839;-69
2022/04/17 07:14:49;;;;;;;;;3.00;2.00;;;;;18.49;46.36;102923.31;5068476;28;8790;-69
2022/04/17 07:17:14;;;;;;;;;5.25;5.00;;;;;18.48;46.48;102922.44;5069661;28;8802;-68
2022/04/17 07:19:39;;;;;;;;;4.00;4.00;;;;;18.48;46.46;102917.16;5068571;28;11347;-68
2022/04/17 07:22:05;;;;;;;;;4.00;4.00;;;;;18.48;46.15;102925.09;5068181;28;8795;-68
2022/04/17 07:24:30;;;;;;;;;3.00;2.50;;;;;18.50;46.45;102917.16;5077326;28;8961;-68
2022/04/17 07:26:56;;;;;;;;;4.25;4.00;;;;;18.49;46.21;102918.00;5089469;28;8896;-68
2022/04/17 07:29:22;;;;;;;;;3.50;3.50;;;;;18.50;46.24;102920.72;5074000;28;8792;-68
2022/04/17 07:31:51;;;;;;;;;5.00;5.00;;;;;18.51;46.15;102918.97;5069596;28;11350;-68
2022/04/17 07:34:20;;;;;;;;;3.00;3.00;;;;;18.53;46.19;102920.81;5069554;28;9636;-68
2022/04/17 07:36:54;;;;;;;;;3.25;3.00;;;;;18.53;46.36;102919.91;5068165;28;9617;-68
2022/04/17 07:39:19;;;;;;;;;3.25;3.25;;;;;18.54;46.10;102919.97;5067427;28;9546;-68
2022/04/17 07:41:46;;;;;;;;;3.75;3.75;;;;;18.55;46.24;102912.91;5069155;28;9626;-68
2022/04/17 07:44:12;;;;;;;;;3.25;3.25;;;;;18.55;46.36;102915.56;5069288;28;8821;-68
2022/04/17 07:46:42;;;;;;;;;4.00;4.00;;;;;18.55;46.39;102913.81;5069496;28;9773;-68
2022/04/17 07:49:07;;;;;;;;;4.75;4.75;;;;;18.56;46.03;102912.94;5067568;28;9638;-68
2022/04/17 07:51:36;;;;;;;;;4.00;4.00;;;;;18.57;46.07;102911.19;5068625;28;9659;-68
2022/04/17 07:54:02;;;;;;;;;4.25;3.75;;;;;18.59;46.08;102912.13;5068760;28;8787;-68
2022/04/17 07:56:28;;;;;;;;;5.25;4.00;;;;;18.59;46.00;102905.09;5069205;28;9770;-68
2022/04/17 07:58:54;;;;;;;;;3.00;3.00;;;;;18.57;46.07;102909.44;5067059;28;9639;-68
2022/04/17 08:01:19;;;;;;;;;4.75;4.00;;;;;18.62;45.99;102913.09;5072627;28;8775;-68
2022/04/17 08:06:10;;;;;;;;;3.00;3.00;;;;;18.61;45.80;102900.69;5072286;28;8811;-67
2022/04/17 08:08:37;;;;;;;;;3.00;3.00;;;;;18.62;46.04;102906.91;5071526;28;8829;-67
2022/04/17 08:11:10;;;;;;;;;3.00;3.00;;;;;18.64;46.03;102905.16;5071794;28;8789;-68
2022/04/17 08:13:35;;;;;;;;;4.50;3.25;;;;;18.64;46.09;102895.47;5073035;28;9462;-67
2022/04/17 08:16:02;;;;;;;;;4.75;4.00;;;;;18.65;46.11;102893.72;5072522;28;9476;-67
2022/04/17 08:18:28;;;;;;;;;3.25;3.25;;;;;18.72;47.07;102896.53;5072184;28;8764;-68
2022/04/17 08:20:53;;;;;;;;;3.75;3.75;;;;;18.91;49.88;102892.50;5072775;28;9459;-69
2022/04/17 08:23:19;;;;;;;;;4.50;4.50;;;;;18.97;48.18;102897.91;5073061;28;8771;-68
2022/04/17 08:25:44;;;;;;;;;8.00;5.75;;;;;19.12;49.54;102902.63;5071864;28;8850;-68
2022/04/17 08:28:10;;;;;;;;;4.00;3.50;;;;;19.24;51.18;102898.44;5073061;28;8771;-68
2022/04/17 08:30:37;;;;;;;;;6.25;4.50;;;;;19.30;51.70;102895.94;5072830;28;8928;-69
2022/04/17 08:33:05;;;;;;;;;5.75;5.00;;;;;19.34;51.70;102898.63;5071711;28;9602;-68
2022/04/17 08:35:31;;;;;;;;;4.00;4.00;;;;;19.48;54.41;102897.16;5072653;28;9701;-68
2022/04/17 08:38:02;;;;;;;;;4.75;4.50;;;;;19.61;53.51;102891.19;5072139;28;9444;-68
2022/04/17 08:40:28;;;;;;;;;4.75;4.75;;;;;19.48;52.86;102881.25;5071811;28;8776;-69
2022/04/17 08:42:54;;;;;;;;;7.50;6.00;;;;;19.44;49.56;102888.25;5072364;28;9485;-69
2022/04/17 08:45:21;;;;;;;;;9.75;9.75;;;;;19.36;45.90;102886.28;5072476;28;9835;-69
2022/04/17 08:47:46;;;;;;;;;8.25;8.25;;;;;19.33;44.34;102883.59;5071442;28;9874;-69
2022/04/17 08:50:16;;;;;;;;;10.75;9.75;;;;;18.64;38.73;102881.34;5072163;28;9660;-70
2022/04/17 08:52:46;;;;;;;;;10.75;9.75;;;;;18.39;38.38;102879.91;5072499;28;9524;-70
2022/04/17 08:55:11;;;;;;;;;8.25;8.00;;;;;18.45;36.04;102880.03;5071675;28;9773;-72
2022/04/17 08:57:37;;;;;;;;;10.00;10.00;;;;;18.04;36.13;102876.47;5072136;28;9680;-71
2022/04/17 09:00:04;;;;;;;;;10.25;9.00;;;;;17.86;36.82;102882.22;5072018;28;9222;-71
2022/04/17 09:02:30;;;;;;;;;10.00;10.00;;;;;17.85;35.54;102879.50;5071368;28;8772;-70
2022/04/17 09:04:56;;;;;;;;;13.50;12.50;;;;;17.80;35.49;102874.16;5071098;28;10535;-70
2022/04/17 09:07:21;;;;;;;;;12.50;11.00;;;;;17.77;35.31;102874.03;5070273;28;9512;-71
2022/04/17 09:09:52;;;;;;;;;10.00;9.50;;;;;17.90;35.67;102869.06;5070713;28;8914;-70
2022/04/17 09:12:22;;;;;;;;;8.75;8.00;;;;;17.83;35.20;102870.66;5071492;28;8922;-70
2022/04/17 09:14:48;;;;;;;;;13.25;12.00;;;;;17.78;34.55;102870.56;5070653;28;10216;-71
2022/04/17 09:17:14;;;;;;;;;15.00;14.00;;;;;17.84;34.70;102868.09;5073103;28;9947;-71
2022/04/17 09:19:39;;;;;;;;;15.75;12.75;;;;;17.84;35.38;102864.53;5073752;28;8817;-70
2022/04/17 09:22:06;;;;;;;;;10.00;9.00;;;;;17.96;34.41;102872.72;5070662;28;8794;-70
2022/04/17 09:24:35;;;;;;;;;8.50;8.50;;;;;17.88;34.51;102867.25;5071452;28;9543;-70
2022/04/17 09:27:06;;;;;;;;;11.75;8.75;;;;;17.79;34.06;102860.88;5071038;28;9969;-71
2022/04/17 09:29:36;;;;;;;;;9.50;9.50;;;;;17.79;34.32;102861.78;5070072;28;9861;-70
2022/04/17 09:32:03;;;;;;;;;7.75;7.75;;;;;17.95;34.30;102847.19;5071505;28;9933;-71
2022/04/17 09:34:41;;;;;;;;;9.00;8.00;;;;;17.86;33.99;102853.13;5071071;28;9827;-71
2022/04/17 09:37:15;;;;;;;;;8.00;8.00;;;;;17.88;34.46;102852.28;5070350;28;9878;-70
2022/04/17 09:39:40;;;;;;;;;9.50;9.00;;;;;17.95;33.68;102841.91;5069601;28;9861;-71
2022/04/17 09:42:07;;;;;;;;;9.00;8.25;;;;;17.96;33.52;102842.78;5071013;28;10537;-71
2022/04/17 09:44:37;;;;;;;;;7.00;7.00;;;;;18.04;33.99;102841.19;5070652;28;8882;-71
2022/04/17 09:47:09;;;;;;;;;6.50;6.50;;;;;18.03;32.72;102837.69;5069292;28;9628;-71
2022/04/17 09:49:57;;;;;;;;;8.75;8.75;;;;;18.01;32.96;102841.13;5070225;28;10386;-71
2022/04/17 09:52:46;;;;;;;;;8.25;8.00;;;;;17.96;32.93;102833.09;5070949;28;9695;-71
2022/04/17 09:55:12;;;;;;;;;8.25;8.25;;;;;17.99;33.14;102835.84;5065927;28;9947;-71
2022/04/17 09:57:40;;;;;;;;;10.25;9.25;;;;;18.00;32.90;102819.09;5070152;28;9853;-71
2022/04/17 10:00:14;;;;;;;;;7.25;7.25;;;;;18.09;33.28;102824.59;5070773;28;9716;-71
2022/04/17 10:02:42;;;;;;;;;12.00;12.00;;;;;18.14;33.33;102812.38;5070511;28;10039;-71
2022/04/17 10:05:09;;;;;;;;;14.25;11.25;;;;;18.26;33.41;102806.44;5069729;28;10826;-71
2022/04/17 10:07:39;;;;;;;;;11.75;11.75;;;;;18.36;33.97;102811.09;5068372;28;10165;-70
2022/04/17 10:10:05;;;;;;;;;9.75;9.00;;;;;18.28;33.51;102810.94;5070484;28;9840;-69
2022/04/17 10:12:33;;;;;;;;;9.25;9.00;;;;;18.18;32.87;102798.34;5070060;28;9783;-69
2022/04/17 10:15:04;;;;;;;;;11.25;10.00;;;;;18.07;33.10;102802.50;5070276;28;9701;-70
2022/04/17 10:17:30;;;;;;;;;8.00;8.00;;;;;18.77;33.74;102796.06;5067655;28;9920;-71
2022/04/17 10:20:01;;;;;;;;;5.50;5.50;;;;;18.80;34.06;102797.03;5070071;28;9771;-73
2022/04/17 10:22:29;;;;;;;;;6.50;6.50;;;;;18.97;33.32;102788.50;5069624;28;9764;-72
2022/04/17 10:25:07;;;;;;;;;7.50;7.50;;;;;18.79;33.26;102786.38;5069503;28;9719;-71
2022/04/17 10:27:46;;;;;;;;;9.00;6.75;;;;;18.95;32.99;102787.56;5068213;28;9830;-77
2022/04/17 10:30:18;;;;;;;;;6.50;6.50;;;;;18.95;32.33;102784.94;5070038;28;9898;-71
2022/04/17 10:33:14;;;;;;;;;8.50;8.50;;;;;18.87;32.61;102782.13;5069391;28;9856;-71
2022/04/17 10:35:49;;;;;;;;;7.50;7.50;;;;;18.74;32.99;102770.44;5071839;28;9882;-70
2022/04/17 10:38:50;;;;;;;;;8.00;8.00;;;;;18.75;32.73;102766.91;5068434;28;10025;-70
2022/04/17 10:41:15;;;;;;;;;8.25;8.25;;;;;18.92;32.66;102772.53;5065681;28;9858;-71
2022/04/17 10:43:46;;;;;;;;;7.50;7.00;;;;;18.88;32.48;102761.84;5070411;28;9783;-70
2022/04/17 10:46:17;;;;;;;;;6.25;6.25;;;;;18.86;32.89;102759.16;5068962;28;9076;-71
2022/04/17 10:48:50;;;;;;;;;6.25;6.25;;;;;19.00;32.46;102749.75;5068123;28;9896;-71
2022/04/17 10:51:20;;;;;;;;;8.00;8.00;;;;;18.80;31.66;102757.31;5074348;28;9708;-70
2022/04/17 10:54:03;;;;;;;;;9.00;8.00;;;;;18.76;31.92;102755.47;5069673;28;9755;-70
2022/04/17 10:56:30;;;;;;;;;6.00;6.00;;;;;18.91;31.91;102740.72;5070387;28;9794;-70
2022/04/17 10:58:57;;;;;;;;;9.00;9.00;;;;;18.89;31.88;102731.88;5067949;28;9717;-70
2022/04/17 11:01:41;;;;;;;;;7.00;4.00;;;;;18.96;31.45;102736.41;5069295;28;9770;-70
2022/04/17 11:04:26;;;;;;;;;8.50;8.50;;;;;18.89;31.48;102731.88;5069830;28;9839;-71
2022/04/17 11:06:53;;;;;;;;;6.00;5.00;;;;;18.78;31.16;102721.13;5066694;28;9937;-71
2022/04/17 11:09:23;;;;;;;;;5.00;5.00;;;;;18.86;31.26;102721.25;5069869;28;9878;-70
2022/04/17 11:11:49;;;;;;;;;7.75;7.00;;;;;19.05;31.34;102715.38;5069776;28;9842;-70
2022/04/17 11:14:18;;;;;;;;;7.75;5.50;;;;;18.77;30.86;102720.22;5068269;28;10039;-70
2022/04/17 11:16:49;;;;;;;;;4.75;4.75;;;;;18.99;31.46;102712.66;5067211;28;8843;-70
2022/04/17 11:19:18;;;;;;;;;9.25;6.75;;;;;18.98;31.03;102711.75;5069892;28;9765;-70
2022/04/17 11:21:46;;;;;;;;;6.50;5.50;;;;;19.15;30.85;102705.00;5068650;28;9942;-71
2022/04/17 11:24:11;;;;;;;;;5.00;5.00;;;;;19.02;31.61;102707.41;5069542;28;9793;-70
2022/04/17 11:26:55;;;;;;;;;6.75;6.75;;;;;18.96;31.71;102705.56;5069209;28;9893;-72
2022/04/17 11:29:47;;;;;;;;;8.50;7.00;;;;;18.97;33.48;102699.38;5068264;28;8785;-72
2022/04/17 11:32:18;;;;;;;;;7.25;7.25;;;;;18.95;35.36;102697.56;5069949;28;9940;-71
2022/04/17 11:34:54;;;;;;;;;5.25;5.25;;;;;18.93;34.39;102691.38;5071325;28;9775;-72
2022/04/17 11:37:24;;;;;;;;;5.00;5.00;;;;;18.81;35.09;102687.66;5071592;28;9724;-72
2022/04/17 11:39:53;;;;;;;;;4.50;4.50;;;;;18.88;34.80;102688.66;5073724;28;10442;-71
2022/04/17 11:42:19;;;;;;;;;5.00;5.00;;;;;18.87;33.39;102670.09;5073171;28;9607;-71
2022/04/17 11:44:46;;;;;;;;;3.00;2.75;;;;;18.82;34.53;102678.81;5073349;28;9704;-71
2022/04/17 11:47:15;;;;;;;;;4.00;4.00;;;;;18.82;35.08;102672.63;5071543;28;8858;-71